Time;durP1;ratioP1;P1;durP2;ratioP2;P2;SDS_P1;SDS_P2;PMS_P1;PMS_P2;Temp;Humidity;BMP_temperature;BMP_pressure;BME280_temperature;BME280_humidity;BME280_pressure;Samples;Min_cycle;Max_cycle;Signal;HPM_P1;HPM_P2
2022/08/09 00:00:50;;;;;;;0.40;0.40;;;18.30;99.90;;;;;;5073244;28;20694;-64
2022/08/09 00:03:41;;;;;;;0.50;0.50;;;18.10;99.90;;;;;;5074297;28;20578;-67
2022/08/09 00:06:50;;;;;;;0.47;0.47;;;18.00;99.90;;;;;;5073994;28;20201;-66
2022/08/09 00:09:39;;;;;;;0.40;0.40;;;18.10;99.90;;;;;;5074074;28;20229;-65
2022/08/09 00:12:27;;;;;;;0.40;0.40;;;18.00;99.90;;;;;;5072175;28;20197;-64
2022/08/09 00:15:22;;;;;;;0.40;0.40;;;18.10;99.90;;;;;;5072687;28;20201;-64
2022/08/09 00:18:30;;;;;;;0.40;0.40;;;18.10;99.90;;;;;;5072219;28;20296;-65
2022/08/09 00:21:22;;;;;;;0.50;0.50;;;18.10;99.90;;;;;;5073201;28;20204;-65
2022/08/09 00:24:12;;;;;;;0.40;0.40;;;18.20;99.90;;;;;;5072905;28;20203;-65
2022/08/09 00:27:02;;;;;;;0.43;0.43;;;18.30;99.90;;;;;;5073023;28;20197;-65
2022/08/09 00:29:51;;;;;;;0.50;0.50;;;18.40;99.90;;;;;;5071744;28;20262;-65
2022/08/09 00:32:59;;;;;;;0.40;0.40;;;18.40;99.90;;;;;;5072508;28;20280;-66
2022/08/09 00:35:47;;;;;;;0.50;0.50;;;18.50;99.90;;;;;;5071421;28;20204;-66
2022/08/09 00:38:38;;;;;;;0.40;0.40;;;18.40;99.90;;;;;;5070711;28;20224;-65
2022/08/09 00:41:27;;;;;;;0.40;0.40;;;18.40;99.90;;;;;;5071547;28;20200;-65
2022/08/09 00:44:35;;;;;;;0.40;0.40;;;18.40;99.90;;;;;;5074383;28;20239;-65
2022/08/09 00:47:24;;;;;;;0.40;0.40;;;18.40;99.90;;;;;;5075048;28;20211;-66
2022/08/09 00:50:12;;;;;;;0.40;0.40;;;18.30;99.90;;;;;;5076285;28;20673;-67
2022/08/09 00:53:02;;;;;;;0.40;0.40;;;18.30;99.90;;;;;;5076937;28;20192;-65
2022/08/09 00:55:58;;;;;;;0.40;0.40;;;18.30;99.90;;;;;;5077183;28;20204;-66
2022/08/09 00:58:57;;;;;;;0.50;0.50;;;18.40;99.90;;;;;;5074979;28;20264;-65
2022/08/09 01:01:48;;;;;;;0.40;0.40;;;18.30;99.90;;;;;;5075394;28;20208;-64
2022/08/09 01:04:46;;;;;;;0.40;0.40;;;18.30;99.90;;;;;;5076529;28;20196;-65
2022/08/09 01:07:44;;;;;;;0.40;0.40;;;18.30;99.90;;;;;;5075768;28;20327;-66
2022/08/09 01:10:58;;;;;;;2.67;2.47;;;18.20;99.90;;;;;;5076208;28;20597;-65
2022/08/09 01:13:54;;;;;;;0.50;0.50;;;18.30;99.90;;;;;;5074986;28;20246;-65
2022/08/09 01:16:54;;;;;;;0.50;0.50;;;18.00;99.90;;;;;;5076237;28;20330;-65
2022/08/09 01:19:51;;;;;;;0.40;0.40;;;17.80;99.90;;;;;;5075099;28;20220;-65
2022/08/09 01:23:05;;;;;;;0.40;0.40;;;17.80;99.90;;;;;;5076669;28;20269;-64
2022/08/09 01:26:24;;;;;;;0.40;0.40;;;17.80;99.90;;;;;;5076222;28;20257;-65
2022/08/09 01:29:15;;;;;;;0.50;0.50;;;17.80;99.90;;;;;;5075984;28;20577;-65
2022/08/09 01:32:07;;;;;;;0.40;0.40;;;17.80;99.90;;;;;;5075790;28;20190;-65
2022/08/09 01:35:20;;;;;;;0.40;0.40;;;17.80;99.90;;;;;;5075021;28;20346;-64
2022/08/09 01:38:29;;;;;;;0.50;0.50;;;17.80;99.90;;;;;;5075365;28;20228;-65
2022/08/09 01:41:21;;;;;;;0.40;0.40;;;17.70;99.90;;;;;;5074946;28;20200;-64
2022/08/09 01:44:16;;;;;;;0.40;0.40;;;17.80;99.90;;;;;;5076515;28;20205;-65
2022/08/09 01:47:07;;;;;;;0.40;0.40;;;17.80;99.90;;;;;;5076160;28;20216;-65
2022/08/09 01:50:02;;;;;;;0.75;0.68;;;17.90;99.90;;;;;;5075395;28;20205;-66
2022/08/09 01:52:55;;;;;;;0.40;0.40;;;17.90;99.90;;;;;;5075777;28;20193;-66
2022/08/09 01:55:44;;;;;;;0.52;0.52;;;17.90;99.90;;;;;;5072024;28;20196;-65
2022/08/09 01:58:34;;;;;;;0.40;0.40;;;17.90;99.90;;;;;;5096447;28;20227;-65
2022/08/09 02:01:26;;;;;;;0.47;0.47;;;17.80;99.90;;;;;;5093479;28;20558;-65
2022/08/09 02:04:38;;;;;;;0.40;0.40;;;17.80;99.90;;;;;;5094442;28;20204;-64
2022/08/09 02:07:34;;;;;;;0.40;0.40;;;17.60;99.90;;;;;;5094186;28;20279;-65
2022/08/09 02:10:46;;;;;;;0.40;0.40;;;17.70;99.90;;;;;;5094276;28;20203;-65
2022/08/09 02:13:40;;;;;;;0.50;0.50;;;17.60;99.90;;;;;;5094742;28;20203;-64
2022/08/09 02:16:34;;;;;;;0.45;0.45;;;17.60;99.90;;;;;;5094383;28;20208;-65
2022/08/09 02:19:44;;;;;;;0.45;0.45;;;17.60;99.90;;;;;;5094705;28;20220;-65
2022/08/09 02:22:37;;;;;;;0.40;0.40;;;17.50;99.90;;;;;;5094815;28;20212;-66
2022/08/09 02:25:31;;;;;;;0.50;0.50;;;17.60;99.90;;;;;;5093818;28;20202;-64
2022/08/09 02:28:34;;;;;;;0.40;0.40;;;17.50;99.90;;;;;;5095209;28;20509;-65
2022/08/09 02:31:26;;;;;;;0.45;0.45;;;17.50;99.90;;;;;;5094579;28;20200;-65
2022/08/09 02:34:23;;;;;;;0.40;0.40;;;17.40;99.90;;;;;;5094707;28;20601;-64
2022/08/09 02:37:31;;;;;;;0.40;0.40;;;17.40;99.90;;;;;;5094159;28;20214;-65
2022/08/09 02:40:25;;;;;;;0.40;0.40;;;17.50;99.90;;;;;;5094748;28;20558;-65
2022/08/09 02:43:20;;;;;;;0.40;0.40;;;17.50;99.90;;;;;;5094467;28;20223;-65
2022/08/09 02:46:11;;;;;;;1.23;1.17;;;17.70;99.90;;;;;;5093846;28;20676;-66
2022/08/09 02:49:04;;;;;;;0.40;0.40;;;17.70;99.90;;;;;;5094302;28;20700;-65
2022/08/09 02:51:58;;;;;;;0.40;0.40;;;17.80;99.90;;;;;;5092746;28;20575;-66
2022/08/09 02:54:51;;;;;;;0.40;0.40;;;17.80;99.90;;;;;;5093995;28;20200;-65
2022/08/09 02:57:46;;;;;;;0.40;0.40;;;17.80;99.90;;;;;;5092061;28;20192;-65
2022/08/09 03:00:55;;;;;;;0.40;0.40;;;17.90;99.90;;;;;;5092227;28;20285;-65
2022/08/09 03:03:46;;;;;;;0.40;0.40;;;17.90;99.90;;;;;;5094263;28;20216;-66
2022/08/09 03:06:57;;;;;;;0.40;0.40;;;18.10;99.90;;;;;;5093232;28;20196;-65
2022/08/09 03:10:00;;;;;;;0.40;0.40;;;18.00;99.90;;;;;;5093248;28;20200;-66
2022/08/09 03:12:50;;;;;;;0.40;0.40;;;18.00;99.90;;;;;;5093496;28;20296;-65
2022/08/09 03:15:40;;;;;;;0.40;0.40;;;18.00;99.90;;;;;;5093063;28;20208;-66
2022/08/09 03:18:49;;;;;;;0.40;0.40;;;18.00;99.90;;;;;;5092780;28;20211;-65
2022/08/09 03:21:44;;;;;;;0.40;0.40;;;18.00;99.90;;;;;;5093044;28;20278;-66
2022/08/09 03:24:39;;;;;;;0.40;0.40;;;17.90;99.90;;;;;;5093583;28;20227;-66
2022/08/09 03:27:40;;;;;;;0.40;0.40;;;17.90;99.90;;;;;;5090753;28;20297;-67
2022/08/09 03:30:33;;;;;;;0.50;0.50;;;18.00;99.90;;;;;;5091417;28;20200;-65
2022/08/09 03:33:24;;;;;;;0.40;0.40;;;17.90;99.90;;;;;;5092363;28;20204;-66
2022/08/09 03:36:32;;;;;;;0.40;0.40;;;17.90;99.90;;;;;;5092720;28;20294;-65
2022/08/09 03:39:23;;;;;;;0.50;0.50;;;17.90;99.90;;;;;;5092418;28;20322;-65
2022/08/09 03:42:26;;;;;;;0.40;0.40;;;17.90;99.90;;;;;;5092910;28;20210;-64
2022/08/09 03:45:17;;;;;;;0.50;0.50;;;17.90;99.90;;;;;;5092901;28;20196;-65
2022/08/09 03:48:26;;;;;;;0.40;0.40;;;17.90;99.90;;;;;;5092946;28;20304;-65
2022/08/09 03:51:19;;;;;;;0.45;0.45;;;17.80;99.90;;;;;;5092551;28;20326;-67
2022/08/09 03:54:31;;;;;;;0.43;0.43;;;17.90;99.90;;;;;;5092877;28;20710;-65
2022/08/09 03:57:21;;;;;;;0.40;0.40;;;17.90;99.90;;;;;;5078917;28;20580;-65
2022/08/09 04:00:12;;;;;;;0.40;0.40;;;18.00;99.90;;;;;;5072169;28;20685;-66
2022/08/09 04:03:04;;;;;;;0.45;0.45;;;18.00;99.90;;;;;;5072298;28;20197;-65
2022/08/09 04:05:53;;;;;;;0.40;0.40;;;18.00;99.90;;;;;;5070972;28;20197;-65
2022/08/09 04:08:43;;;;;;;0.45;0.45;;;17.90;99.90;;;;;;5071795;28;20246;-65
2022/08/09 04:11:58;;;;;;;0.40;0.40;;;17.90;99.90;;;;;;5072101;28;20266;-65
2022/08/09 04:14:49;;;;;;;0.40;0.40;;;18.00;99.90;;;;;;5072170;28;20357;-65
2022/08/09 04:17:51;;;;;;;0.40;0.40;;;18.10;99.90;;;;;;5071099;28;20199;-64
2022/08/09 04:20:44;;;;;;;0.40;0.40;;;18.20;99.90;;;;;;5070792;28;20197;-65
2022/08/09 04:23:32;;;;;;;0.40;0.40;;;18.20;99.90;;;;;;5072571;28;20220;-66
2022/08/09 04:26:20;;;;;;;0.60;0.60;;;18.30;99.90;;;;;;5071951;28;20568;-66
2022/08/09 04:29:10;;;;;;;0.40;0.40;;;18.40;99.90;;;;;;5070900;28;20216;-65
2022/08/09 04:32:02;;;;;;;0.40;0.40;;;18.40;99.90;;;;;;5070790;28;20742;-65
2022/08/09 04:34:53;;;;;;;0.40;0.40;;;18.40;99.90;;;;;;5071223;28;20666;-65
2022/08/09 04:37:44;;;;;;;0.40;0.40;;;18.60;99.90;;;;;;5075122;28;20619;-65
2022/08/09 04:40:48;;;;;;;0.63;0.63;;;18.50;99.90;;;;;;5076982;28;20204;-67
2022/08/09 04:43:43;;;;;;;0.40;0.40;;;18.30;99.90;;;;;;5075438;28;20224;-64
2022/08/09 04:46:51;;;;;;;0.40;0.40;;;18.20;99.90;;;;;;5077374;28;20322;-66
2022/08/09 04:49:48;;;;;;;0.40;0.40;;;18.20;99.90;;;;;;5076741;28;20274;-64
2022/08/09 04:52:43;;;;;;;0.40;0.40;;;18.20;99.90;;;;;;5077223;28;20669;-64
2022/08/09 04:55:32;;;;;;;0.40;0.40;;;18.30;99.90;;;;;;5078596;28;20247;-65
2022/08/09 04:58:28;;;;;;;0.40;0.40;;;18.30;99.90;;;;;;5078388;28;20238;-65
2022/08/09 05:01:19;;;;;;;0.40;0.40;;;18.40;99.90;;;;;;5078032;28;20200;-66
2022/08/09 05:04:09;;;;;;;0.40;0.40;;;18.50;99.90;;;;;;5077351;28;20312;-66
2022/08/09 05:07:01;;;;;;;0.60;0.60;;;18.60;99.90;;;;;;5077443;28;20208;-65
2022/08/09 05:09:51;;;;;;;0.40;0.40;;;18.80;99.90;;;;;;5075439;28;20228;-65
2022/08/09 05:12:39;;;;;;;0.40;0.40;;;18.70;99.90;;;;;;5074389;28;20230;-64
2022/08/09 05:15:28;;;;;;;0.40;0.40;;;18.90;99.90;;;;;;5071991;28;20219;-68
2022/08/09 05:18:35;;;;;;;0.40;0.40;;;19.00;99.90;;;;;;5070354;28;20220;-65
2022/08/09 05:21:44;;;;;;;0.40;0.40;;;19.00;99.90;;;;;;5070218;28;20639;-65
2022/08/09 05:24:39;;;;;;;0.40;0.40;;;19.10;99.90;;;;;;5071553;28;20608;-66
2022/08/09 05:27:28;;;;;;;0.50;0.50;;;19.20;99.90;;;;;;5070545;28;20326;-67
2022/08/09 05:30:18;;;;;;;0.40;0.40;;;19.30;99.90;;;;;;5069709;28;20577;-66
2022/08/09 05:33:06;;;;;;;0.40;0.40;;;19.30;99.90;;;;;;5074449;28;20200;-65
2022/08/09 05:35:57;;;;;;;0.47;0.47;;;19.40;99.90;;;;;;5073825;28;20201;-66
2022/08/09 05:38:47;;;;;;;0.50;0.50;;;19.40;99.90;;;;;;5073291;28;20228;-66
2022/08/09 05:41:36;;;;;;;0.40;0.40;;;19.50;99.90;;;;;;5073571;28;20205;-65
2022/08/09 05:44:26;;;;;;;0.40;0.40;;;19.50;99.90;;;;;;5072883;28;20601;-65
2022/08/09 05:47:20;;;;;;;0.40;0.40;;;19.60;99.90;;;;;;5072199;28;20251;-64
2022/08/09 05:50:10;;;;;;;0.40;0.40;;;19.70;99.90;;;;;;5073018;28;20299;-66
2022/08/09 05:53:18;;;;;;;0.40;0.40;;;19.70;99.90;;;;;;5073595;28;20232;-67
2022/08/09 05:56:19;;;;;;;0.40;0.40;;;19.70;99.90;;;;;;5073042;28;20639;-65
2022/08/09 05:59:12;;;;;;;0.50;0.50;;;19.80;99.90;;;;;;5072641;28;20708;-67
2022/08/09 06:02:03;;;;;;;0.40;0.40;;;19.80;99.90;;;;;;5073225;28;20254;-63
2022/08/09 06:04:51;;;;;;;0.75;0.75;;;19.80;99.90;;;;;;5072874;28;20216;-64
2022/08/09 06:07:42;;;;;;;0.40;0.40;;;19.90;99.90;;;;;;5072726;28;20197;-66
2022/08/09 06:10:39;;;;;;;0.40;0.40;;;19.90;99.90;;;;;;5122209;22;20318;-69
2022/08/09 06:13:27;;;;;;;0.40;0.40;;;19.90;99.90;;;;;;5104940;28;20551;-69
2022/08/09 06:16:22;;;;;;;1.10;1.10;;;19.90;99.90;;;;;;5097852;28;20196;-69
2022/08/09 06:19:13;;;;;;;0.40;0.40;;;19.90;99.90;;;;;;5098813;28;20231;-68
2022/08/09 06:22:01;;;;;;;0.40;0.40;;;20.00;99.90;;;;;;5102729;28;20282;-68
2022/08/09 06:24:50;;;;;;;0.63;0.63;;;20.10;99.90;;;;;;5100263;28;20306;-68
2022/08/09 06:27:39;;;;;;;0.50;0.50;;;20.20;99.90;;;;;;5103413;28;20278;-68
2022/08/09 06:30:30;;;;;;;0.50;0.50;;;20.30;99.90;;;;;;5100202;28;20220;-69
2022/08/09 06:33:19;;;;;;;0.40;0.40;;;20.40;99.90;;;;;;5104490;28;20204;-67
2022/08/09 06:36:28;;;;;;;0.40;0.40;;;20.60;99.90;;;;;;5109743;28;20252;-67
2022/08/09 06:39:16;;;;;;;0.40;0.40;;;20.80;99.90;;;;;;5112880;28;20400;-69
2022/08/09 06:42:07;;;;;;;0.40;0.40;;;21.00;99.90;;;;;;5112430;28;20207;-68
2022/08/09 06:44:58;;;;;;;0.40;0.40;;;21.10;99.90;;;;;;5113178;28;20196;-68
2022/08/09 06:48:06;;;;;;;0.40;0.40;;;21.10;99.90;;;;;;5111233;28;20228;-68
2022/08/09 06:50:56;;;;;;;0.40;0.40;;;21.20;99.90;;;;;;5109666;28;20226;-68
2022/08/09 06:53:46;;;;;;;0.40;0.40;;;21.20;99.90;;;;;;5109802;28;20230;-70
2022/08/09 06:56:36;;;;;;;1.17;1.08;;;21.20;99.90;;;;;;5111199;28;20176;-68
2022/08/09 06:59:25;;;;;;;0.40;0.40;;;21.30;99.90;;;;;;5111997;28;20250;-68
2022/08/09 07:02:34;;;;;;;0.40;0.40;;;21.10;99.90;;;;;;5114655;28;20243;-68
2022/08/09 07:05:25;;;;;;;0.40;0.40;;;20.90;99.90;;;;;;5111294;28;20234;-69
2022/08/09 07:08:35;;;;;;;0.40;0.40;;;20.80;99.90;;;;;;5109762;28;20631;-68
2022/08/09 07:11:27;;;;;;;0.40;0.40;;;20.70;99.90;;;;;;5113296;28;20207;-67
2022/08/09 07:14:35;;;;;;;0.40;0.40;;;21.60;99.90;;;;;;5113465;28;20204;-68
2022/08/09 07:17:25;;;;;;;0.40;0.40;;;20.60;99.90;;;;;;5107765;28;20234;-68
2022/08/09 07:20:26;;;;;;;0.40;0.40;;;20.50;99.90;;;;;;5104057;28;20215;-67
2022/08/09 07:23:16;;;;;;;2.45;2.35;;;20.50;99.90;;;;;;5103804;28;20256;-70
2022/08/09 07:26:07;;;;;;;0.40;0.40;;;20.40;99.90;;;;;;5108641;28;20226;-67
2022/08/09 07:28:56;;;;;;;0.40;0.40;;;20.40;99.90;;;;;;5109929;28;20220;-68
2022/08/09 07:32:02;;;;;;;0.40;0.40;;;20.30;99.90;;;;;;5098379;28;20200;-68
2022/08/09 07:34:51;;;;;;;0.40;0.40;;;20.30;99.90;;;;;;5097021;28;20261;-68
2022/08/09 07:37:40;;;;;;;0.40;0.40;;;20.40;99.90;;;;;;5096315;28;20664;-67
2022/08/09 07:40:32;;;;;;;0.40;0.40;;;20.40;99.90;;;;;;5095738;28;20219;-67
2022/08/09 07:43:40;;;;;;;0.40;0.40;;;20.60;99.90;;;;;;5097173;28;20252;-67
2022/08/09 07:46:46;;;;;;;0.40;0.40;;;20.70;99.90;;;;;;5098269;28;20223;-67
2022/08/09 07:49:34;;;;;;;0.40;0.40;;;20.90;99.90;;;;;;5094730;28;20216;-68
2022/08/09 07:52:42;;;;;;;0.40;0.40;;;21.00;99.90;;;;;;5094282;28;20634;-68
2022/08/09 07:55:34;;;;;;;0.40;0.40;;;21.20;99.90;;;;;;5094389;28;20202;-67
2022/08/09 07:58:43;;;;;;;0.40;0.40;;;21.20;99.90;;;;;;5094322;28;20309;-68
2022/08/09 08:01:34;;;;;;;0.40;0.40;;;21.20;99.90;;;;;;5095508;28;20274;-68
2022/08/09 08:04:27;;;;;;;0.40;0.40;;;21.50;99.90;;;;;;5095499;28;20199;-68
2022/08/09 08:07:18;;;;;;;0.40;0.40;;;21.70;99.90;;;;;;5095329;28;20226;-68
2022/08/09 08:10:26;;;;;;;0.40;0.40;;;21.70;99.90;;;;;;5094342;28;20348;-68
2022/08/09 08:13:21;;;;;;;0.40;0.40;;;21.80;99.90;;;;;;5096193;28;20739;-68
2022/08/09 08:16:10;;;;;;;0.40;0.40;;;21.90;99.90;;;;;;5094548;28;20721;-68
2022/08/09 08:19:19;;;;;;;0.40;0.40;;;22.00;99.90;;;;;;5093654;28;20679;-68
2022/08/09 08:22:09;;;;;;;0.40;0.40;;;22.10;99.90;;;;;;5089246;28;20201;-67
2022/08/09 08:24:57;;;;;;;0.40;0.40;;;22.20;99.90;;;;;;5075437;28;20692;-68
2022/08/09 08:27:46;;;;;;;0.40;0.40;;;24.10;99.90;;;;;;5074965;28;20208;-68
2022/08/09 08:30:36;;;;;;;1.10;1.10;;;22.40;99.90;;;;;;5074528;28;20227;-68
2022/08/09 08:33:28;;;;;;;0.40;0.40;;;22.50;99.90;;;;;;5074326;28;20211;-68
2022/08/09 08:36:36;;;;;;;0.40;0.40;;;22.60;99.90;;;;;;5074066;28;20542;-68
2022/08/09 08:39:28;;;;;;;0.40;0.40;;;22.60;99.90;;;;;;5073528;28;20217;-68
2022/08/09 08:42:31;;;;;;;0.40;0.40;;;22.70;99.90;;;;;;5074135;28;20700;-68
2022/08/09 08:45:29;;;;;;;0.40;0.40;;;22.70;99.90;;;;;;5090978;28;20695;-68
2022/08/09 08:48:25;;;;;;;0.40;0.40;;;22.80;99.90;;;;;;5094586;28;20250;-68
2022/08/09 08:51:17;;;;;;;2.63;2.53;;;22.90;99.90;;;;;;5093379;28;20231;-68
2022/08/09 08:54:06;;;;;;;0.40;0.40;;;22.90;99.90;;;;;;5094266;28;20249;-68
2022/08/09 08:56:58;;;;;;;0.40;0.40;;;22.90;99.90;;;;;;5077922;28;20193;-68
2022/08/09 08:59:47;;;;;;;0.40;0.40;;;22.90;99.90;;;;;;5072900;28;20224;-68
2022/08/09 09:02:43;;;;;;;0.40;0.40;;;22.90;99.70;;;;;;5074093;28;20203;-68
2022/08/09 09:05:36;;;;;;;0.40;0.40;;;23.00;98.80;;;;;;5075476;28;20295;-68
2022/08/09 09:08:46;;;;;;;0.40;0.40;;;23.00;98.40;;;;;;5077919;28;20200;-68
2022/08/09 09:11:41;;;;;;;0.40;0.40;;;23.00;97.00;;;;;;5079130;28;20208;-68
2022/08/09 09:14:32;;;;;;;0.40;0.40;;;23.00;97.00;;;;;;5077898;28;20201;-68
2022/08/09 09:17:20;;;;;;;0.40;0.40;;;23.20;96.80;;;;;;5079182;28;20550;-68
2022/08/09 09:20:10;;;;;;;0.40;0.40;;;23.30;96.10;;;;;;5075186;28;20225;-68
2022/08/09 09:23:02;;;;;;;0.40;0.40;;;23.30;95.50;;;;;;5087269;28;20193;-68
2022/08/09 09:25:51;;;;;;;0.40;0.40;;;23.30;95.40;;;;;;5095304;28;20588;-68
2022/08/09 09:28:52;;;;;;;0.55;0.55;;;23.40;95.00;;;;;;5097053;28;20220;-67
2022/08/09 09:32:00;;;;;;;0.40;0.40;;;23.40;94.30;;;;;;5097483;28;20249;-68
2022/08/09 09:35:05;;;;;;;0.40;0.40;;;23.50;94.40;;;;;;5096779;28;20195;-68
2022/08/09 09:37:56;;;;;;;0.40;0.40;;;23.60;94.30;;;;;;5097218;28;20198;-68
2022/08/09 09:40:45;;;;;;;0.40;0.40;;;23.70;94.00;;;;;;5096429;28;20247;-68
2022/08/09 09:43:34;;;;;;;0.40;0.40;;;23.60;93.80;;;;;;5097067;28;20200;-68
2022/08/09 09:46:43;;;;;;;0.40;0.30;;;23.90;93.20;;;;;;5096728;28;20710;-68
2022/08/09 09:49:40;;;;;;;0.40;0.40;;;23.80;93.10;;;;;;5094862;28;20227;-68
2022/08/09 09:52:50;;;;;;;0.40;0.40;;;23.90;92.70;;;;;;5095370;28;20195;-68
2022/08/09 09:55:56;;;;;;;0.40;0.40;;;24.10;92.10;;;;;;5095512;28;20283;-68
2022/08/09 09:58:52;;;;;;;0.40;0.40;;;24.00;92.10;;;;;;5095704;28;20296;-68
2022/08/09 10:01:42;;;;;;;0.40;0.40;;;24.00;91.80;;;;;;5096204;28;20207;-67
2022/08/09 10:04:31;;;;;;;0.40;0.40;;;24.10;92.20;;;;;;5095907;28;20204;-68
2022/08/09 10:07:23;;;;;;;0.40;0.40;;;24.30;92.00;;;;;;5095139;28;20737;-67
2022/08/09 10:10:11;;;;;;;0.40;0.40;;;24.20;91.80;;;;;;5095726;28;20228;-68
2022/08/09 10:13:05;;;;;;;0.40;0.40;;;24.40;92.00;;;;;;5095731;28;20208;-68
2022/08/09 10:15:57;;;;;;;0.40;0.40;;;24.40;91.50;;;;;;5095365;28;20200;-68
2022/08/09 10:19:06;;;;;;;0.40;0.40;;;24.40;91.30;;;;;;5095614;28;20330;-68
2022/08/09 10:21:59;;;;;;;0.40;0.40;;;24.50;91.40;;;;;;5095726;28;20199;-68
2022/08/09 10:24:48;;;;;;;0.40;0.40;;;24.50;90.70;;;;;;5095052;28;20279;-68
2022/08/09 10:27:37;;;;;;;0.40;0.40;;;24.70;89.90;;;;;;5096276;28;20231;-68
2022/08/09 10:30:43;;;;;;;0.40;0.40;;;24.70;89.90;;;;;;5094161;28;20224;-68
2022/08/09 10:33:52;;;;;;;0.40;0.40;;;24.70;89.70;;;;;;5094066;28;20283;-68
2022/08/09 10:37:00;;;;;;;0.40;0.40;;;24.80;87.70;;;;;;5095524;28;20208;-67
2022/08/09 10:39:51;;;;;;;0.40;0.40;;;24.90;88.50;;;;;;5094759;28;20218;-68
2022/08/09 10:42:39;;;;;;;0.40;0.40;;;25.00;87.50;;;;;;5096000;28;20202;-68
2022/08/09 10:45:33;;;;;;;0.40;0.40;;;25.10;86.70;;;;;;5095320;28;20668;-68
2022/08/09 10:48:36;;;;;;;0.40;0.40;;;25.40;86.10;;;;;;5097062;28;20247;-69
2022/08/09 10:51:35;;;;;;;0.40;0.40;;;25.30;86.50;;;;;;5096012;28;20509;-70
2022/08/09 10:54:28;;;;;;;0.40;0.40;;;25.70;84.40;;;;;;5096936;28;20196;-68
2022/08/09 10:57:18;;;;;;;0.50;0.50;;;25.70;82.70;;;;;;5094841;28;20192;-68
2022/08/09 11:00:32;;;;;;;0.40;0.40;;;25.80;81.20;;;;;;5094703;28;20494;-68
2022/08/09 11:03:24;;;;;;;0.40;0.40;;;25.80;81.70;;;;;;5095057;28;20643;-68
2022/08/09 11:06:33;;;;;;;0.40;0.40;;;26.20;81.60;;;;;;5095336;28;20672;-68
2022/08/09 11:09:50;;;;;;;0.40;0.40;;;26.40;82.20;;;;;;5094639;28;20227;-68
2022/08/09 11:12:43;;;;;;;0.40;0.40;;;26.80;79.00;;;;;;5094785;28;20693;-68
2022/08/09 11:15:36;;;;;;;0.40;0.40;;;27.10;77.50;;;;;;5094807;28;20211;-68
2022/08/09 11:18:45;;;;;;;0.40;0.40;;;27.50;77.50;;;;;;5093781;28;20345;-68
2022/08/09 11:21:55;;;;;;;0.40;0.40;;;27.60;76.10;;;;;;5094270;28;20279;-69
2022/08/09 11:25:07;;;;;;;0.40;0.40;;;27.70;74.70;;;;;;5093682;28;20282;-68
2022/08/09 11:27:58;;;;;;;0.40;0.40;;;27.90;74.10;;;;;;5093954;28;20576;-68
2022/08/09 11:30:53;;;;;;;0.40;0.40;;;28.10;73.90;;;;;;5090545;28;20303;-68
2022/08/09 11:33:48;;;;;;;0.40;0.40;;;28.40;73.40;;;;;;5074447;28;20203;-68
2022/08/09 11:36:42;;;;;;;0.40;0.40;;;28.40;72.80;;;;;;5086329;28;20223;-68
2022/08/09 11:39:31;;;;;;;0.40;0.40;;;28.50;71.60;;;;;;5094120;28;20223;-68
2022/08/09 11:42:38;;;;;;;0.63;0.63;;;28.70;69.30;;;;;;5093731;28;20196;-70
2022/08/09 11:45:29;;;;;;;1.30;1.15;;;28.80;68.80;;;;;;5093423;28;20206;-68
2022/08/09 11:48:31;;;;;;;0.40;0.40;;;28.70;68.50;;;;;;5093520;28;20506;-69
2022/08/09 11:51:24;;;;;;;0.40;0.40;;;28.70;68.80;;;;;;5093342;28;20203;-68
2022/08/09 11:54:32;;;;;;;0.40;0.40;;;28.60;67.80;;;;;;5093768;28;20232;-68
2022/08/09 11:57:37;;;;;;;0.98;0.98;;;28.30;67.40;;;;;;5093569;28;20198;-68
2022/08/09 12:00:50;;;;;;;0.40;0.40;;;28.00;68.20;;;;;;5093474;28;20234;-68
2022/08/09 12:03:40;;;;;;;0.40;0.40;;;27.90;67.20;;;;;;5093683;28;20302;-68
2022/08/09 12:06:50;;;;;;;0.70;0.55;;;27.80;68.00;;;;;;5092927;28;20227;-68
2022/08/09 12:09:44;;;;;;;1.20;0.50;;;27.80;66.70;;;;;;5109952;22;20237;-62
2022/08/09 12:12:45;;;;;;;0.40;0.40;;;27.60;66.20;;;;;;5071880;28;20201;-63
2022/08/09 12:15:34;;;;;;;0.40;0.40;;;27.70;67.90;;;;;;5071932;28;20252;-63
2022/08/09 12:18:42;;;;;;;0.40;0.40;;;28.00;67.80;;;;;;5071372;28;20196;-64
2022/08/09 12:21:43;;;;;;;0.40;0.40;;;28.40;68.30;;;;;;5052048;28;20205;-63
2022/08/09 12:24:38;;;;;;;0.40;0.40;;;28.90;66.20;;;;;;5051214;28;20588;-64
2022/08/09 12:27:29;;;;;;;1.02;1.02;;;29.20;64.50;;;;;;5051746;28;20217;-63
2022/08/09 12:30:38;;;;;;;0.40;0.40;;;29.20;64.60;;;;;;5050238;28;20228;-63
2022/08/09 12:33:26;;;;;;;0.40;0.40;;;29.20;65.00;;;;;;5050893;28;20227;-64
2022/08/09 12:36:49;;;;;;;0.40;0.40;;;29.20;64.40;;;;;;5051048;28;20302;-63
2022/08/09 12:39:38;;;;;;;0.40;0.40;;;29.10;64.40;;;;;;5050875;28;20216;-63
2022/08/09 12:42:26;;;;;;;0.40;0.40;;;29.10;64.20;;;;;;5055073;28;20653;-63
2022/08/09 12:45:17;;;;;;;0.40;0.40;;;28.90;64.60;;;;;;5054910;28;20197;-63
2022/08/09 12:48:27;;;;;;;0.40;0.40;;;29.10;64.50;;;;;;5054769;28;20216;-63
2022/08/09 12:51:24;;;;;;;0.40;0.40;;;29.40;62.60;;;;;;5055215;28;20201;-64
2022/08/09 12:54:49;;;;;;;0.70;0.70;;;29.40;63.30;;;;;;5055393;28;20335;-64
2022/08/09 12:57:57;;;;;;;0.40;0.40;;;29.90;61.10;;;;;;5054800;28;20276;-64
2022/08/09 13:00:47;;;;;;;0.68;0.68;;;30.10;62.50;;;;;;5054215;28;20217;-63
2022/08/09 13:03:36;;;;;;;1.48;0.73;;;30.80;59.60;;;;;;5054554;28;20260;-63
2022/08/09 13:06:46;;;;;;;0.40;0.40;;;30.30;60.20;;;;;;5054366;28;20280;-63
2022/08/09 13:09:36;;;;;;;0.40;0.40;;;29.50;59.50;;;;;;5053955;28;20225;-64
2022/08/09 13:12:29;;;;;;;0.40;0.40;;;30.10;61.10;;;;;;5054425;28;20208;-63
2022/08/09 13:15:19;;;;;;;0.50;0.50;;;32.80;58.90;;;;;;5054716;28;20621;-64
2022/08/09 13:18:07;;;;;;;0.88;0.88;;;35.70;54.00;;;;;;5054377;28;20204;-64
2022/08/09 13:20:57;;;;;;;2.95;0.60;;;38.10;49.40;;;;;;5053687;28;20799;-64
2022/08/09 13:24:08;;;;;;;0.50;0.50;;;38.60;46.20;;;;;;5054013;28;20197;-63
2022/08/09 13:27:29;;;;;;;0.40;0.40;;;38.60;46.20;;;;;;5054138;28;20251;-63
2022/08/09 13:30:27;;;;;;;0.40;0.40;;;38.50;44.70;;;;;;5053698;28;20228;-63
2022/08/09 13:33:35;;;;;;;0.40;0.40;;;39.40;43.60;;;;;;5053999;28;20286;-64
2022/08/09 13:36:41;;;;;;;0.45;0.45;;;40.70;42.00;;;;;;5054183;28;20201;-64
2022/08/09 13:39:32;;;;;;;0.40;0.40;;;41.20;40.40;;;;;;5053536;28;20716;-64
2022/08/09 13:42:42;;;;;;;0.40;0.40;;;41.40;39.60;;;;;;5053785;28;20193;-63
2022/08/09 13:45:30;;;;;;;0.50;0.50;;;40.10;38.80;;;;;;5053799;28;20201;-64
2022/08/09 13:48:38;;;;;;;0.40;0.40;;;39.30;40.00;;;;;;5053640;28;20310;-64
2022/08/09 13:51:29;;;;;;;0.50;0.50;;;39.40;39.80;;;;;;5052634;28;20205;-64
2022/08/09 13:54:17;;;;;;;0.40;0.40;;;40.70;38.80;;;;;;5053425;28;20209;-64
2022/08/09 13:57:06;;;;;;;0.43;0.43;;;41.40;38.10;;;;;;5054001;28;20572;-65
2022/08/09 14:00:05;;;;;;;0.50;0.50;;;41.90;38.20;;;;;;5053085;28;20224;-65
2022/08/09 14:02:53;;;;;;;0.40;0.40;;;42.20;37.80;;;;;;5053754;28;20334;-65
2022/08/09 14:06:01;;;;;;;0.60;0.60;;;43.10;37.80;;;;;;5053739;28;20197;-65
2022/08/09 14:08:58;;;;;;;0.85;0.82;;;43.40;35.80;;;;;;5052732;28;20296;-65
2022/08/09 14:11:47;;;;;;;0.77;0.77;;;40.70;37.20;;;;;;5053365;28;20223;-65
2022/08/09 14:14:35;;;;;;;0.40;0.40;;;37.60;40.30;;;;;;5053101;28;20582;-65
2022/08/09 14:17:24;;;;;;;0.50;0.50;;;35.50;42.60;;;;;;5053045;28;20216;-65
2022/08/09 14:20:19;;;;;;;0.57;0.57;;;35.10;43.10;;;;;;5052848;28;20222;-64
2022/08/09 14:23:14;;;;;;;0.40;0.40;;;34.10;44.20;;;;;;5052954;28;20201;-63
2022/08/09 14:26:09;;;;;;;0.40;0.40;;;33.90;45.00;;;;;;5053608;28;20554;-63
2022/08/09 14:28:59;;;;;;;0.75;0.60;;;34.00;44.60;;;;;;5052946;28;20216;-63
2022/08/09 14:31:47;;;;;;;0.40;0.40;;;34.40;44.30;;;;;;5052951;28;20201;-63
2022/08/09 14:34:42;;;;;;;0.40;0.40;;;35.40;43.70;;;;;;5053022;28;20194;-64
2022/08/09 14:37:31;;;;;;;0.45;0.45;;;38.00;41.50;;;;;;5052730;28;20205;-64
2022/08/09 14:40:39;;;;;;;0.43;0.43;;;39.80;39.90;;;;;;5052356;28;20323;-64
2022/08/09 14:43:47;;;;;;;0.40;0.40;;;41.40;38.30;;;;;;5052669;28;20241;-64
2022/08/09 14:46:40;;;;;;;0.50;0.50;;;42.80;37.30;;;;;;5052394;28;20194;-64
2022/08/09 14:49:50;;;;;;;0.60;0.60;;;43.30;35.50;;;;;;5052546;28;20644;-64
2022/08/09 14:52:49;;;;;;;0.50;0.50;;;43.40;35.30;;;;;;5052649;28;20227;-64
2022/08/09 14:55:37;;;;;;;1.10;1.10;;;44.10;35.20;;;;;;5052445;28;20331;-64
2022/08/09 14:58:29;;;;;;;0.50;0.50;;;44.70;33.70;;;;;;5052520;28;20202;-64
2022/08/09 15:01:18;;;;;;;0.45;0.45;;;43.80;34.20;;;;;;5052268;28;20206;-64
2022/08/09 15:04:07;;;;;;;0.50;0.50;;;43.70;33.90;;;;;;5052512;28;20207;-64
2022/08/09 15:06:58;;;;;;;1.00;0.70;;;44.00;33.70;;;;;;5052208;28;20211;-65
2022/08/09 15:09:46;;;;;;;0.50;0.50;;;45.20;33.30;;;;;;5051682;28;20601;-65
2022/08/09 15:12:56;;;;;;;0.57;0.57;;;45.60;32.10;;;;;;5052297;28;20280;-65
2022/08/09 15:15:44;;;;;;;0.50;0.50;;;45.20;32.50;;;;;;5052543;28;20233;-65
2022/08/09 15:18:32;;;;;;;0.50;0.50;;;44.80;32.30;;;;;;5052073;28;20193;-65